Main page
METAR-TAF:

METAR-TAF

Airports :

Kulob Airport

Kulob, Tajikistan

latitude: 37-59-18N, longitude: 069-48-18E, elevation: 699 m

Current weather observation

The report was made 21 minutes ago, at 21:00 UTC
Wind 8 kt from the North/Northeast
Temperature 25°C
Humidity 41%
Pressure 1009 hPa
Visibility: 8000 m

METAR: UTDK 052100Z 02004MPS 8000 NSC 25/11 Q1009 R01/09//70 RMK QFE700/0933

Time: 02:21 (21:21 UTC)

Forecast

The report was made 3 hours and 21 minutes ago, at 18:00 UTC
Forecast valid from 05 at 19 UTC to 06 at 04 UTC
Wind 4 kt from variable directions
Visibility: 6000 m
Few clouds at a height of 2500 ft
Scattered clouds at a height of 4000 ft
Temporary
from 05 at 19 UTC to 06 at 04 UTC
Wind 14 kt from the North/Northeast
Visibility: 3100 m
haze

TAF: UTDK 051800Z 0519/0604 VRB02MPS 6000 FEW025 SCT040 TEMPO 0519/0604 03007MPS 3100 HZ

Weather observations and forecasts of more than 4000 airports (METAR and TAF reports).

The available stations are represented by yellow and red dots on the map.

Hover mouse over dot to see the name of the station.

Then click to see weather observations and forecasts.

To change the map : click on the green buttons with a black cross to zoom in, on the green button with a dash to zoom out, or on the green arrows for adjacent maps.


METAR-TAF: